createdAt,value
2023-05-11T00:02:14.166Z,58.69
2023-05-11T00:04:41.462Z,58.78
2023-05-11T00:07:08.426Z,59.03
2023-05-11T00:09:35.833Z,59.20
2023-05-11T00:12:02.953Z,59.36
2023-05-11T00:14:29.920Z,59.41
2023-05-11T00:16:56.724Z,59.54
2023-05-11T00:19:23.527Z,59.78
2023-05-11T00:21:50.403Z,60.00
2023-05-11T00:24:17.230Z,60.13
2023-05-11T00:26:44.037Z,60.17
2023-05-11T00:29:10.862Z,60.46
2023-05-11T00:31:37.824Z,60.65
2023-05-11T00:34:04.561Z,60.70
2023-05-11T00:36:31.428Z,60.70
2023-05-11T00:38:58.269Z,61.00
2023-05-11T00:41:25.448Z,60.79
2023-05-11T00:43:52.292Z,60.80
2023-05-11T00:46:19.205Z,60.99
2023-05-11T00:48:46.277Z,61.14
2023-05-11T00:51:13.779Z,61.28
2023-05-11T00:53:40.917Z,61.33
2023-05-11T00:56:08.709Z,61.50
2023-05-11T00:58:36.150Z,61.89
2023-05-11T01:01:03.127Z,62.16
2023-05-11T01:03:30.181Z,62.50
2023-05-11T01:06:27.752Z,62.42
2023-05-11T01:09:06.563Z,62.69
2023-05-11T01:11:46.407Z,62.56
2023-05-11T01:14:21.150Z,63.25
2023-05-11T01:16:54.029Z,64.25
2023-05-11T01:19:33.959Z,64.86
2023-05-11T01:22:08.456Z,66.42
2023-05-11T01:24:59.845Z,67.99
2023-05-11T01:28:04.110Z,67.66
2023-05-11T01:30:51.311Z,68.43
2023-05-11T01:33:26.258Z,69.54
2023-05-11T01:35:56.776Z,69.82
2023-05-11T01:38:28.953Z,69.46
2023-05-11T01:40:59.549Z,71.17
2023-05-11T01:43:28.919Z,69.65
2023-05-11T01:46:00.487Z,70.23
2023-05-11T01:48:31.415Z,68.73
2023-05-11T01:51:01.438Z,68.67
2023-05-11T01:53:34.778Z,68.22
2023-05-11T01:56:03.924Z,67.98
2023-05-11T01:58:32.350Z,68.05
2023-05-11T02:01:03.245Z,67.89
2023-05-11T02:03:35.516Z,68.46
2023-05-11T02:06:05.464Z,68.72
2023-05-11T02:08:34.254Z,69.42
2023-05-11T02:11:03.125Z,69.04
2023-05-11T02:13:30.826Z,69.34
2023-05-11T02:15:59.663Z,69.51
2023-05-11T02:18:28.459Z,68.32
2023-05-11T02:20:59.977Z,68.11
2023-05-11T02:23:27.947Z,68.62
2023-05-11T02:25:56.930Z,69.16
2023-05-11T02:28:24.400Z,68.75
2023-05-11T02:30:59.577Z,68.50
2023-05-11T02:33:35.256Z,68.83
2023-05-11T02:36:03.561Z,68.53
2023-05-11T02:38:34.653Z,68.55
2023-05-11T02:41:11.866Z,68.81
2023-05-11T02:43:44.808Z,69.02
2023-05-11T02:46:17.308Z,69.50
2023-05-11T02:48:49.711Z,69.58
2023-05-11T02:51:21.326Z,69.17
2023-05-11T02:53:53.064Z,68.46
2023-05-11T02:56:22.049Z,68.02
2023-05-11T02:58:51.129Z,67.39
2023-05-11T03:01:22.645Z,66.78
2023-05-11T03:03:49.858Z,67.14
2023-05-11T03:06:17.043Z,66.57
2023-05-11T03:08:44.372Z,66.34
2023-05-11T03:11:14.832Z,66.63
2023-05-11T03:13:45.669Z,66.17
2023-05-11T03:16:14.995Z,66.28
2023-05-11T03:18:43.152Z,66.54
2023-05-11T03:21:10.057Z,66.58
2023-05-11T03:23:39.716Z,66.13
2023-05-11T03:26:07.497Z,66.08
2023-05-11T03:28:38.826Z,65.96
2023-05-11T03:31:07.923Z,66.10
2023-05-11T03:33:35.254Z,66.70
2023-05-11T03:36:05.791Z,65.89
2023-05-11T03:38:36.101Z,65.93
2023-05-11T03:41:03.263Z,65.85
2023-05-11T03:43:35.123Z,66.27
2023-05-11T03:46:04.423Z,66.18
2023-05-11T03:48:32.436Z,66.28
2023-05-11T03:51:00.174Z,66.40
2023-05-11T03:53:27.204Z,66.39
2023-05-11T03:55:54.854Z,66.43
2023-05-11T03:58:22.839Z,66.30
2023-05-11T04:00:50.151Z,66.46
2023-05-11T04:03:18.248Z,66.13
2023-05-11T04:05:45.806Z,66.93
2023-05-11T04:08:13.395Z,66.69
2023-05-11T04:10:40.213Z,66.59
2023-05-11T04:13:07.047Z,66.71
2023-05-11T04:15:35.388Z,66.77
2023-05-11T04:18:03.262Z,66.99
2023-05-11T04:20:31.663Z,66.58
2023-05-11T04:22:59.282Z,66.59
2023-05-11T04:25:26.156Z,66.85
2023-05-11T04:27:53.059Z,66.54
2023-05-11T04:30:21.541Z,66.43
2023-05-11T04:32:48.593Z,66.95
2023-05-11T04:35:15.622Z,66.66
2023-05-11T04:37:42.476Z,67.07
2023-05-11T04:40:10.546Z,66.36
2023-05-11T04:42:40.474Z,66.65
2023-05-11T04:45:11.780Z,66.22
2023-05-11T04:47:38.767Z,66.08
2023-05-11T04:50:07.464Z,66.21
2023-05-11T04:52:35.649Z,64.71
2023-05-11T04:55:02.684Z,64.93
2023-05-11T04:57:29.720Z,64.24
2023-05-11T04:59:57.028Z,63.16
2023-05-11T05:02:23.839Z,62.66
2023-05-11T05:04:50.675Z,63.33
2023-05-11T05:07:17.479Z,64.39
2023-05-11T05:09:45.500Z,62.68
2023-05-11T05:12:14.434Z,62.34
2023-05-11T05:14:41.139Z,66.66
2023-05-11T05:17:08.001Z,62.81
2023-05-11T05:19:34.988Z,62.35
2023-05-11T05:22:02.126Z,59.42
2023-05-11T05:24:29.206Z,58.82
2023-05-11T05:26:55.967Z,59.50
2023-05-11T05:29:22.725Z,58.22
2023-05-11T05:31:49.545Z,58.29
2023-05-11T05:34:18.218Z,58.56
2023-05-11T05:36:45.411Z,58.80
2023-05-11T05:39:12.715Z,58.73
2023-05-11T05:41:42.609Z,59.25
2023-05-11T05:44:10.349Z,59.54
2023-05-11T05:46:38.339Z,59.48
2023-05-11T05:49:05.619Z,59.81
2023-05-11T05:51:32.841Z,60.50
2023-05-11T05:53:59.747Z,61.08
2023-05-11T05:56:27.203Z,61.55
2023-05-11T05:58:53.989Z,60.85
2023-05-11T06:01:21.980Z,59.89
2023-05-11T06:03:52.159Z,58.84
2023-05-11T06:06:19.367Z,58.16
2023-05-11T06:08:46.497Z,57.47
2023-05-11T06:11:13.332Z,57.49
2023-05-11T06:13:40.108Z,58.46
2023-05-11T06:16:07.011Z,57.15
2023-05-11T06:18:34.951Z,55.24
2023-05-11T06:21:04.639Z,56.05
2023-05-11T06:23:32.476Z,55.11
2023-05-11T06:25:59.366Z,54.39
2023-05-11T06:28:29.655Z,53.84
2023-05-11T06:30:59.767Z,53.65
2023-05-11T06:33:30.712Z,53.97
2023-05-11T06:35:58.347Z,54.84
2023-05-11T06:38:28.647Z,56.67
2023-05-11T06:40:56.408Z,57.41
2023-05-11T06:43:23.356Z,57.94
2023-05-11T06:45:52.832Z,57.29
2023-05-11T06:48:23.334Z,56.60
2023-05-11T06:50:50.199Z,56.28
2023-05-11T06:53:18.053Z,55.33
2023-05-11T06:55:45.076Z,55.47
2023-05-11T06:58:12.085Z,55.37
2023-05-11T07:00:39.459Z,54.69
2023-05-11T07:03:06.880Z,54.34
2023-05-11T07:05:34.048Z,53.46
2023-05-11T07:08:00.849Z,52.69
2023-05-11T07:10:27.653Z,52.18
2023-05-11T07:12:54.455Z,51.99
2023-05-11T07:15:21.205Z,50.88
2023-05-11T07:17:48.099Z,50.61
2023-05-11T07:20:15.087Z,50.85
2023-05-11T07:22:41.989Z,50.58
2023-05-11T07:25:09.838Z,50.69
2023-05-11T07:27:36.799Z,51.63
2023-05-11T07:30:04.834Z,51.58
2023-05-11T07:32:32.652Z,51.15
2023-05-11T07:34:59.435Z,51.15
2023-05-11T07:37:26.141Z,50.75
2023-05-11T07:39:54.411Z,50.65
2023-05-11T07:42:21.267Z,50.70
2023-05-11T07:44:48.034Z,50.93
2023-05-11T07:47:14.855Z,51.48
2023-05-11T07:49:43.790Z,51.92
2023-05-11T07:52:11.736Z,51.39
2023-05-11T07:54:40.260Z,50.59
2023-05-11T07:57:07.896Z,50.32
2023-05-11T07:59:34.768Z,50.82
2023-05-11T08:02:01.797Z,49.92
2023-05-11T08:04:30.157Z,50.16
2023-05-11T08:06:56.949Z,50.87
2023-05-11T08:09:23.739Z,50.66
2023-05-11T08:11:50.589Z,50.36
2023-05-11T08:14:17.929Z,50.05
2023-05-11T08:16:44.855Z,50.23
2023-05-11T08:19:13.150Z,50.98
2023-05-11T08:21:40.372Z,51.63
2023-05-11T08:24:07.511Z,51.48
2023-05-11T08:26:34.386Z,50.48
2023-05-11T08:29:01.189Z,50.94
2023-05-11T08:31:28.082Z,50.81
2023-05-11T08:33:55.052Z,50.76
2023-05-11T08:36:22.097Z,57.76
2023-05-11T08:38:48.841Z,52.60
2023-05-11T08:41:15.678Z,54.50
2023-05-11T08:43:45.747Z,54.32
2023-05-11T08:46:17.887Z,51.65
2023-05-11T08:48:45.160Z,51.12
2023-05-11T08:51:12.127Z,51.47
2023-05-11T08:53:39.360Z,52.04
2023-05-11T08:56:08.587Z,52.51
2023-05-11T08:58:37.522Z,52.83
2023-05-11T09:01:06.558Z,52.44
2023-05-11T09:03:35.862Z,51.74
2023-05-11T09:06:05.650Z,51.92
2023-05-11T09:08:35.898Z,52.22
2023-05-11T09:11:03.975Z,53.37
2023-05-11T09:13:32.073Z,52.21
2023-05-11T09:15:59.479Z,53.37
2023-05-11T09:18:26.943Z,53.08
2023-05-11T09:20:53.968Z,52.74
2023-05-11T09:23:27.292Z,53.33
2023-05-11T09:25:54.673Z,53.09
2023-05-11T09:28:26.031Z,53.22
2023-05-11T09:30:53.857Z,53.54
2023-05-11T09:33:25.844Z,54.35
2023-05-11T09:35:53.208Z,53.92
2023-05-11T09:38:20.692Z,54.33
2023-05-11T09:40:53.113Z,54.48
2023-05-11T09:43:28.400Z,54.42
2023-05-11T09:45:57.164Z,54.68
2023-05-11T09:48:30.217Z,54.64
2023-05-11T09:51:16.277Z,53.98
2023-05-11T09:53:46.262Z,53.63
2023-05-11T09:56:14.116Z,53.66
2023-05-11T09:58:57.345Z,53.87
2023-05-11T10:01:32.913Z,52.76
2023-05-11T10:04:21.445Z,53.21
2023-05-11T10:06:53.406Z,52.56
2023-05-11T10:09:25.545Z,51.35
2023-05-11T10:11:53.702Z,50.93
2023-05-11T10:14:22.200Z,50.09
2023-05-11T10:16:49.487Z,50.78
2023-05-11T10:19:17.405Z,50.04
2023-05-11T10:21:44.955Z,50.10
2023-05-11T10:24:13.873Z,50.50
2023-05-11T10:26:41.185Z,50.40
2023-05-11T10:29:08.170Z,50.08
2023-05-11T10:31:36.759Z,49.12
2023-05-11T10:34:04.510Z,48.38
2023-05-11T10:36:31.205Z,48.00
2023-05-11T10:38:57.960Z,47.49
2023-05-11T10:41:43.238Z,47.67
2023-05-11T10:44:40.703Z,48.05
2023-05-11T10:47:42.328Z,48.11
2023-05-11T10:50:46.714Z,48.16
2023-05-11T10:53:19.170Z,49.14
2023-05-11T10:56:06.297Z,49.13
2023-05-11T10:58:54.890Z,49.14
2023-05-11T11:01:30.575Z,48.34
2023-05-11T11:04:03.097Z,48.47
2023-05-11T11:06:31.548Z,49.11
2023-05-11T11:09:04.455Z,48.93
2023-05-11T11:11:32.754Z,49.02
2023-05-11T11:14:02.954Z,49.14
2023-05-11T11:16:30.497Z,49.27
2023-05-11T11:19:31.309Z,48.72
2023-05-11T11:22:02.587Z,48.25
2023-05-11T11:24:41.141Z,48.32
2023-05-11T11:27:09.560Z,48.35
2023-05-11T11:29:37.321Z,47.87
2023-05-11T11:32:25.563Z,48.18
2023-05-11T11:34:52.554Z,48.60
2023-05-11T11:37:20.495Z,48.80
2023-05-11T11:39:50.318Z,48.31
2023-05-11T11:42:18.552Z,48.87
2023-05-11T11:44:46.543Z,47.12
2023-05-11T11:47:26.258Z,47.30
2023-05-11T11:49:55.203Z,47.63
2023-05-11T11:52:28.004Z,47.60
2023-05-11T11:54:56.488Z,47.13
2023-05-11T11:57:35.758Z,47.10
2023-05-11T12:00:10.634Z,47.02
2023-05-11T12:02:42.664Z,47.02
2023-05-11T12:05:22.326Z,47.38
2023-05-11T12:07:52.320Z,47.71
2023-05-11T12:10:21.779Z,47.69
2023-05-11T12:12:55.194Z,47.49
2023-05-11T12:15:27.218Z,47.73
2023-05-11T12:17:54.176Z,47.72
2023-05-11T12:20:21.767Z,47.99
2023-05-11T12:22:49.447Z,48.21
2023-05-11T12:25:18.124Z,48.20
2023-05-11T12:27:58.472Z,48.23
2023-05-11T12:30:30.754Z,48.82
2023-05-11T12:32:59.897Z,48.56
2023-05-11T12:35:35.763Z,48.53
2023-05-11T12:38:02.952Z,49.09
2023-05-11T12:40:30.942Z,48.81
2023-05-11T12:42:59.389Z,48.55
2023-05-11T12:45:27.125Z,48.93
2023-05-11T12:47:55.447Z,48.75
2023-05-11T12:50:23.003Z,49.11
2023-05-11T12:52:50.468Z,49.15
2023-05-11T12:55:28.165Z,49.55
2023-05-11T12:58:07.989Z,49.73
2023-05-11T13:00:36.979Z,50.14
2023-05-11T13:03:05.452Z,51.33
2023-05-11T13:05:32.340Z,49.79
2023-05-11T13:08:05.285Z,50.67
2023-05-11T13:10:32.389Z,50.38
2023-05-11T13:12:59.406Z,50.83
2023-05-11T13:15:28.764Z,50.49
2023-05-11T13:18:05.537Z,50.77
2023-05-11T13:20:34.013Z,50.71
2023-05-11T13:23:08.942Z,50.73
2023-05-11T13:25:54.333Z,51.27
2023-05-11T13:28:24.277Z,51.72
2023-05-11T13:30:52.518Z,51.95
2023-05-11T13:33:19.809Z,51.23
2023-05-11T13:35:46.712Z,51.38
2023-05-11T13:38:13.581Z,50.81
2023-05-11T13:40:40.497Z,51.55
2023-05-11T13:43:07.582Z,52.08
2023-05-11T13:45:36.347Z,52.05
2023-05-11T13:48:03.603Z,51.98
2023-05-11T13:50:30.777Z,52.03
2023-05-11T13:52:57.601Z,52.29
2023-05-11T13:55:24.481Z,52.69
2023-05-11T13:57:51.524Z,52.66
2023-05-11T14:00:19.768Z,52.42
2023-05-11T14:02:48.299Z,52.30
2023-05-11T14:05:15.185Z,52.27
2023-05-11T14:07:47.155Z,52.01
2023-05-11T14:10:15.943Z,52.45
2023-05-11T14:12:43.325Z,52.67
2023-05-11T14:15:11.306Z,52.91
2023-05-11T14:17:40.625Z,52.91
2023-05-11T14:20:08.102Z,52.50
2023-05-11T14:22:34.822Z,51.95
2023-05-11T14:25:01.959Z,52.67
2023-05-11T14:27:28.870Z,52.53
2023-05-11T14:29:55.791Z,52.33
2023-05-11T14:32:22.707Z,53.02
2023-05-11T14:34:49.510Z,52.78
2023-05-11T14:37:16.453Z,53.03
2023-05-11T14:39:44.084Z,52.69
2023-05-11T14:42:10.860Z,53.81
2023-05-11T14:44:39.249Z,54.88
2023-05-11T14:47:07.674Z,54.62
2023-05-11T14:49:34.454Z,54.74
2023-05-11T14:52:01.163Z,55.29
2023-05-11T14:54:27.946Z,55.30
2023-05-11T14:56:56.634Z,55.79
2023-05-11T14:59:24.420Z,55.91
2023-05-11T15:01:51.159Z,56.36
2023-05-11T15:04:19.554Z,56.53
2023-05-11T15:06:46.572Z,56.03
2023-05-11T15:09:13.626Z,55.79
2023-05-11T15:11:40.636Z,54.55
2023-05-11T15:14:07.510Z,54.05
2023-05-11T15:16:34.470Z,53.75
2023-05-11T15:19:01.327Z,52.78
2023-05-11T15:21:28.237Z,52.14
2023-05-11T15:23:55.073Z,52.81
2023-05-11T15:26:22.839Z,51.19
2023-05-11T15:28:49.973Z,50.29
2023-05-11T15:31:16.942Z,50.62
2023-05-11T15:33:44.716Z,49.63
2023-05-11T15:36:13.175Z,50.72
2023-05-11T15:38:40.347Z,49.50
2023-05-11T15:41:07.986Z,49.34
2023-05-11T15:43:34.977Z,49.23
2023-05-11T15:46:03.772Z,49.71
2023-05-11T15:48:30.792Z,49.05
2023-05-11T15:50:59.772Z,49.45
2023-05-11T15:53:27.004Z,49.25
2023-05-11T15:55:55.612Z,49.19
2023-05-11T15:58:23.108Z,48.78
2023-05-11T16:00:50.057Z,49.20
2023-05-11T16:03:17.482Z,49.23
2023-05-11T16:05:45.512Z,49.27
2023-05-11T16:08:13.128Z,48.95
2023-05-11T16:10:40.304Z,49.30
2023-05-11T16:13:07.645Z,49.59
2023-05-11T16:15:34.407Z,49.38
2023-05-11T16:18:04.628Z,49.11
2023-05-11T16:20:32.438Z,49.10
2023-05-11T16:22:59.215Z,48.94
2023-05-11T16:25:26.131Z,49.77
2023-05-11T16:27:52.863Z,49.62
2023-05-11T16:30:24.985Z,49.57
2023-05-11T16:32:52.357Z,50.39
2023-05-11T16:35:19.363Z,49.59
2023-05-11T16:37:47.814Z,49.95
2023-05-11T16:40:15.301Z,50.60
2023-05-11T16:42:42.470Z,50.80
2023-05-11T16:45:09.778Z,50.15
2023-05-11T16:47:36.509Z,50.85
2023-05-11T16:50:03.737Z,51.24
2023-05-11T16:52:30.632Z,50.32
2023-05-11T16:54:58.916Z,49.97
2023-05-11T16:57:26.799Z,50.02
2023-05-11T16:59:53.580Z,50.36
2023-05-11T17:02:21.235Z,50.57
2023-05-11T17:04:48.121Z,51.08
2023-05-11T17:07:16.068Z,51.28
2023-05-11T17:09:43.131Z,51.65
2023-05-11T17:12:13.188Z,51.33
2023-05-11T17:14:39.938Z,51.74
2023-05-11T17:17:08.154Z,52.16
2023-05-11T17:19:35.018Z,51.67
2023-05-11T17:22:01.813Z,51.84
2023-05-11T17:24:28.678Z,51.90
2023-05-11T17:26:55.669Z,53.65
2023-05-11T17:29:22.892Z,55.74
2023-05-11T17:31:51.654Z,56.53
2023-05-11T17:34:19.193Z,57.20
2023-05-11T17:36:46.253Z,57.13
2023-05-11T17:39:13.221Z,57.54
2023-05-11T17:41:40.060Z,57.56
2023-05-11T17:44:06.823Z,57.39
2023-05-11T17:46:34.456Z,57.47
2023-05-11T17:49:01.710Z,57.52
2023-05-11T17:51:29.111Z,57.72
2023-05-11T17:53:56.295Z,57.57
2023-05-11T17:56:23.450Z,58.24
2023-05-11T17:58:51.654Z,57.68
2023-05-11T18:01:19.660Z,58.00
2023-05-11T18:03:46.883Z,58.05
2023-05-11T18:06:13.932Z,58.73
2023-05-11T18:08:40.928Z,58.49
2023-05-11T18:11:10.142Z,58.87
2023-05-11T18:13:36.950Z,59.30
2023-05-11T18:16:04.188Z,59.10
2023-05-11T18:18:31.980Z,59.23
2023-05-11T18:21:03.838Z,59.13
2023-05-11T18:23:30.682Z,59.25
2023-05-11T18:25:57.394Z,59.69
2023-05-11T18:28:24.130Z,59.83
2023-05-11T18:30:50.927Z,59.62
2023-05-11T18:33:17.785Z,59.48
2023-05-11T18:35:44.472Z,59.65
2023-05-11T18:38:11.230Z,59.81
2023-05-11T18:40:37.965Z,60.37
2023-05-11T18:43:04.884Z,60.51
2023-05-11T18:45:34.858Z,60.56
2023-05-11T18:48:02.649Z,60.68
2023-05-11T18:50:29.924Z,60.95
2023-05-11T18:52:57.222Z,60.83
2023-05-11T18:55:24.426Z,61.43
2023-05-11T18:57:52.072Z,60.94
2023-05-11T19:00:20.563Z,60.93
2023-05-11T19:02:48.380Z,60.99
2023-05-11T19:05:15.434Z,61.37
2023-05-11T19:07:42.148Z,61.29
2023-05-11T19:10:09.401Z,61.59
2023-05-11T19:12:37.282Z,61.85
2023-05-11T19:15:04.456Z,61.25
2023-05-11T19:17:31.294Z,61.58
2023-05-11T19:19:58.077Z,60.11
2023-05-11T19:22:24.925Z,60.07
2023-05-11T19:24:51.763Z,59.51
2023-05-11T19:27:18.556Z,59.32
2023-05-11T19:29:45.320Z,59.33
2023-05-11T19:32:12.149Z,59.26
2023-05-11T19:34:38.906Z,58.76
2023-05-11T19:37:07.028Z,58.05
2023-05-11T19:39:33.749Z,58.06
2023-05-11T19:42:00.682Z,57.42
2023-05-11T19:44:28.504Z,57.23
2023-05-11T19:46:55.244Z,56.89
2023-05-11T19:49:21.944Z,56.74
2023-05-11T19:51:48.722Z,56.50
2023-05-11T19:54:15.931Z,56.86
2023-05-11T19:56:42.707Z,57.00
2023-05-11T19:59:09.467Z,56.12
2023-05-11T20:01:36.296Z,57.21
2023-05-11T20:04:03.274Z,56.70
2023-05-11T20:06:30.104Z,56.52
2023-05-11T20:08:57.030Z,56.33
2023-05-11T20:11:25.312Z,55.92
2023-05-11T20:13:53.504Z,55.02
2023-05-11T20:16:20.377Z,54.86
2023-05-11T20:18:47.415Z,53.71
2023-05-11T20:21:14.200Z,53.96
2023-05-11T20:23:40.945Z,52.76
2023-05-11T20:26:07.800Z,52.71
2023-05-11T20:28:34.605Z,52.45
2023-05-11T20:31:01.698Z,52.00
2023-05-11T20:35:59.050Z,52.08
2023-05-11T20:38:25.809Z,51.32
2023-05-11T20:40:58.662Z,51.34
2023-05-11T20:43:29.503Z,51.14
2023-05-11T20:46:03.155Z,50.60
2023-05-11T20:48:39.629Z,49.82
2023-05-11T20:51:07.746Z,49.94
2023-05-11T20:53:34.569Z,50.69
2023-05-11T20:56:02.898Z,51.22
2023-05-11T20:58:31.709Z,51.67
2023-05-11T21:00:58.614Z,51.91
2023-05-11T21:03:26.850Z,52.09
2023-05-11T21:05:53.955Z,52.20
2023-05-11T21:08:20.780Z,52.13
2023-05-11T21:10:47.760Z,51.93
2023-05-11T21:13:14.633Z,52.04
2023-05-11T21:15:41.483Z,52.75
2023-05-11T21:18:08.507Z,52.49
2023-05-11T21:20:36.081Z,52.85
2023-05-11T21:23:03.833Z,53.27
2023-05-11T21:25:30.905Z,53.17
2023-05-11T21:27:57.734Z,53.13
2023-05-11T21:30:24.536Z,53.87
2023-05-11T21:32:51.458Z,53.29
2023-05-11T21:35:18.688Z,53.11
2023-05-11T21:37:49.437Z,53.33
2023-05-11T21:40:18.032Z,53.98
2023-05-11T21:42:45.231Z,53.53
2023-05-11T21:45:12.341Z,53.49
2023-05-11T21:47:39.527Z,53.40
2023-05-11T21:50:08.607Z,53.22
2023-05-11T21:52:36.220Z,53.62
2023-05-11T21:55:03.029Z,54.39
2023-05-11T21:57:30.080Z,54.32
2023-05-11T21:59:56.929Z,54.37
2023-05-11T22:02:23.845Z,54.45
2023-05-11T22:04:50.610Z,54.48
2023-05-11T22:07:17.667Z,55.01
2023-05-11T22:09:44.496Z,56.74
2023-05-11T22:12:11.862Z,57.73
2023-05-11T22:14:38.607Z,58.42
2023-05-11T22:17:05.563Z,58.76
2023-05-11T22:19:33.070Z,58.41
2023-05-11T22:21:59.806Z,58.13
2023-05-11T22:24:27.278Z,58.07
2023-05-11T22:26:54.436Z,58.42
2023-05-11T22:29:21.897Z,58.79
2023-05-11T22:31:49.308Z,59.71
2023-05-11T22:34:16.288Z,59.62
2023-05-11T22:36:43.161Z,59.38
2023-05-11T22:39:11.425Z,59.28
2023-05-11T22:41:38.799Z,59.72
2023-05-11T22:44:05.950Z,59.76
2023-05-11T22:46:32.788Z,59.92
2023-05-11T22:48:59.703Z,59.81
2023-05-11T22:51:27.104Z,60.00
2023-05-11T22:53:54.804Z,60.11
2023-05-11T22:56:22.278Z,60.27
2023-05-11T22:58:50.101Z,59.71
2023-05-11T23:01:16.915Z,59.76
2023-05-11T23:03:43.742Z,59.30
2023-05-11T23:06:10.461Z,59.25
2023-05-11T23:08:37.191Z,59.12
2023-05-11T23:11:04.445Z,59.32
2023-05-11T23:13:31.201Z,58.85
2023-05-11T23:15:57.956Z,59.08
2023-05-11T23:18:25.079Z,59.30
2023-05-11T23:20:58.818Z,58.45
2023-05-11T23:23:27.463Z,58.25
2023-05-11T23:25:54.199Z,57.63
2023-05-11T23:28:35.917Z,57.97
2023-05-11T23:31:02.695Z,57.47
2023-05-11T23:33:29.452Z,56.92
2023-05-11T23:35:56.564Z,56.44
2023-05-11T23:38:23.614Z,55.82
2023-05-11T23:40:50.377Z,56.31
2023-05-11T23:43:17.121Z,55.80
2023-05-11T23:45:43.944Z,56.00
2023-05-11T23:48:11.668Z,55.88
2023-05-11T23:50:38.499Z,55.94
2023-05-11T23:53:05.319Z,56.01
2023-05-11T23:55:32.442Z,56.39
2023-05-11T23:57:59.233Z,56.95
